createdAt,value
2023-08-15T00:01:08.413Z,22.50
2023-08-15T00:03:36.712Z,22.46
2023-08-15T00:06:06.296Z,22.39
2023-08-15T00:08:34.473Z,22.51
2023-08-15T00:11:02.535Z,22.40
2023-08-15T00:13:30.675Z,22.35
2023-08-15T00:15:58.804Z,22.37
2023-08-15T00:18:27.013Z,22.37
2023-08-15T00:20:55.091Z,22.34
2023-08-15T00:23:24.644Z,22.34
2023-08-15T00:25:52.719Z,22.24
2023-08-15T00:28:20.904Z,22.24
2023-08-15T00:30:49.083Z,22.14
2023-08-15T00:33:17.158Z,22.10
2023-08-15T00:35:45.559Z,22.07
2023-08-15T00:38:13.778Z,22.00
2023-08-15T00:40:43.572Z,21.99
2023-08-15T00:43:12.080Z,22.00
2023-08-15T00:45:42.738Z,21.90
2023-08-15T00:48:12.129Z,21.80
2023-08-15T00:50:41.165Z,21.79
2023-08-15T00:53:09.654Z,21.71
2023-08-15T00:55:38.077Z,21.61
2023-08-15T00:58:08.115Z,21.52
2023-08-15T01:00:36.489Z,21.44
2023-08-15T01:03:05.148Z,21.50
2023-08-15T01:05:33.986Z,21.44
2023-08-15T01:08:02.451Z,21.39
2023-08-15T01:10:30.767Z,21.35
2023-08-15T01:13:07.837Z,21.28
2023-08-15T01:15:43.816Z,21.22
2023-08-15T01:18:17.564Z,21.34
2023-08-15T01:20:46.309Z,21.26
2023-08-15T01:23:16.577Z,21.25
2023-08-15T01:25:46.059Z,21.23
2023-08-15T01:28:15.690Z,21.17
2023-08-15T01:30:48.756Z,21.10
2023-08-15T01:33:21.408Z,21.10
2023-08-15T01:35:58.109Z,21.10
2023-08-15T01:38:33.666Z,21.02
2023-08-15T01:41:05.743Z,20.99
2023-08-15T01:43:35.436Z,20.95
2023-08-15T01:46:04.030Z,20.95
2023-08-15T01:48:32.223Z,21.03
2023-08-15T01:51:00.629Z,21.01
2023-08-15T01:53:28.775Z,20.98
2023-08-15T01:55:56.886Z,21.02
2023-08-15T01:58:26.407Z,20.91
2023-08-15T02:00:54.525Z,20.80
2023-08-15T02:03:22.843Z,20.73
2023-08-15T02:05:51.014Z,20.75
2023-08-15T02:08:19.184Z,20.68
2023-08-15T02:10:47.330Z,20.62
2023-08-15T02:13:15.425Z,20.52
2023-08-15T02:15:45.165Z,20.40
2023-08-15T02:18:13.436Z,20.38
2023-08-15T02:20:41.641Z,20.34
2023-08-15T02:23:09.803Z,20.32
2023-08-15T02:25:37.909Z,20.25
2023-08-15T02:28:05.698Z,20.19
2023-08-15T02:30:38.451Z,20.16
2023-08-15T02:33:08.890Z,20.09
2023-08-15T02:35:41.077Z,20.08
2023-08-15T02:38:09.447Z,20.07
2023-08-15T02:40:37.705Z,20.13
2023-08-15T02:43:06.289Z,20.23
2023-08-15T02:45:34.431Z,20.29
2023-08-15T02:48:02.654Z,20.36
2023-08-15T02:50:32.205Z,20.38
2023-08-15T02:53:00.338Z,20.43
2023-08-15T02:55:28.401Z,20.52
2023-08-15T02:57:56.534Z,20.54
2023-08-15T03:00:24.696Z,20.55
2023-08-15T03:02:52.821Z,20.63
2023-08-15T03:05:21.305Z,20.62
2023-08-15T03:07:50.814Z,20.53
2023-08-15T03:10:18.965Z,20.53
2023-08-15T03:12:47.110Z,20.66
2023-08-15T03:15:15.246Z,20.63
2023-08-15T03:17:44.144Z,20.65
2023-08-15T03:20:13.367Z,20.65
2023-08-15T03:22:45.436Z,20.73
2023-08-15T03:25:14.969Z,20.66
2023-08-15T03:27:43.089Z,20.64
2023-08-15T03:30:12.308Z,20.62
2023-08-15T03:32:40.498Z,20.61
2023-08-15T03:35:09.759Z,20.69
2023-08-15T03:37:37.903Z,20.78
2023-08-15T03:40:07.180Z,20.77
2023-08-15T03:42:36.717Z,20.79
2023-08-15T03:45:05.395Z,20.75
2023-08-15T03:47:33.584Z,20.79
2023-08-15T03:50:01.784Z,20.75
2023-08-15T03:52:29.882Z,20.83
2023-08-15T03:54:57.940Z,20.92
2023-08-15T03:57:26.142Z,20.97
2023-08-15T03:59:55.763Z,21.08
2023-08-15T04:02:23.930Z,21.15
2023-08-15T04:04:52.051Z,21.25
2023-08-15T04:07:20.451Z,21.45
2023-08-15T04:09:48.686Z,21.86
2023-08-15T04:12:16.826Z,22.53
2023-08-15T04:14:45.114Z,23.03
2023-08-15T04:17:14.572Z,23.74
2023-08-15T04:19:42.698Z,24.12
2023-08-15T04:22:10.796Z,24.79
2023-08-15T04:24:38.917Z,25.34
2023-08-15T04:27:08.961Z,25.98
2023-08-15T04:29:37.126Z,26.30
2023-08-15T04:32:05.695Z,26.95
2023-08-15T04:34:35.180Z,27.50
2023-08-15T04:37:03.293Z,27.85
2023-08-15T04:39:31.427Z,28.32
2023-08-15T04:41:59.528Z,28.92
2023-08-15T04:44:27.620Z,29.20
2023-08-15T04:46:56.011Z,29.77
2023-08-15T04:49:24.075Z,30.37
2023-08-15T04:51:53.561Z,30.80
2023-08-15T04:54:21.672Z,30.79
2023-08-15T04:56:50.252Z,31.57
2023-08-15T04:59:19.021Z,31.84
2023-08-15T05:01:47.318Z,32.96
2023-08-15T05:04:15.541Z,33.39
2023-08-15T05:06:43.589Z,33.43
2023-08-15T05:09:13.140Z,33.36
2023-08-15T05:11:41.281Z,33.62
2023-08-15T05:14:09.342Z,33.64
2023-08-15T05:16:37.496Z,34.13
2023-08-15T05:19:05.848Z,34.85
2023-08-15T05:21:34.039Z,34.35
2023-08-15T05:24:02.252Z,34.54
2023-08-15T05:26:31.765Z,35.72
2023-08-15T05:28:59.909Z,35.34
2023-08-15T05:31:28.134Z,34.78
2023-08-15T05:33:56.315Z,34.82
2023-08-15T05:36:24.479Z,35.20
2023-08-15T05:38:52.596Z,35.34
2023-08-15T05:41:20.696Z,35.05
2023-08-15T05:43:50.171Z,35.12
2023-08-15T05:46:18.253Z,36.48
2023-08-15T05:48:46.379Z,35.44
2023-08-15T05:51:14.493Z,35.77
2023-08-15T05:53:42.686Z,35.05
2023-08-15T05:56:10.834Z,34.31
2023-08-15T05:58:39.022Z,34.22
2023-08-15T06:01:08.801Z,35.09
2023-08-15T06:06:09.461Z,33.59
2023-08-15T06:08:37.644Z,34.09
2023-08-15T06:11:05.779Z,33.85
2023-08-15T06:13:33.888Z,33.24
2023-08-15T06:16:02.061Z,33.39
2023-08-15T06:18:31.534Z,33.73
2023-08-15T06:20:59.626Z,33.58
2023-08-15T06:23:27.817Z,34.21
2023-08-15T06:25:55.999Z,33.40
2023-08-15T06:28:24.080Z,32.72
2023-08-15T06:30:52.361Z,32.80
2023-08-15T06:33:20.564Z,32.87
2023-08-15T06:35:50.107Z,32.63
2023-08-15T06:38:18.213Z,31.98
2023-08-15T06:40:46.321Z,31.36
2023-08-15T06:43:14.425Z,31.33
2023-08-15T06:45:44.685Z,31.06
2023-08-15T06:48:12.796Z,30.61
2023-08-15T06:50:40.930Z,30.46
2023-08-15T06:53:10.445Z,30.97
2023-08-15T06:55:38.746Z,31.39
2023-08-15T06:58:07.415Z,31.23
2023-08-15T07:00:36.091Z,30.83
2023-08-15T07:03:04.411Z,30.80
2023-08-15T07:05:32.568Z,30.77
2023-08-15T07:08:01.094Z,30.84
2023-08-15T07:10:30.568Z,30.92
2023-08-15T07:12:58.697Z,30.43
2023-08-15T07:15:26.799Z,30.45
2023-08-15T07:17:55.095Z,30.13
2023-08-15T07:20:23.262Z,29.90
2023-08-15T07:22:51.456Z,30.21
2023-08-15T07:25:19.768Z,30.10
2023-08-15T07:27:49.524Z,29.71
2023-08-15T07:30:17.674Z,29.88
2023-08-15T07:32:45.849Z,30.23
2023-08-15T07:35:14.272Z,30.17
2023-08-15T07:37:42.446Z,30.15
2023-08-15T07:40:11.812Z,30.02
2023-08-15T07:42:40.053Z,30.01
2023-08-15T07:45:10.761Z,29.86
2023-08-15T07:47:39.746Z,29.84
2023-08-15T07:50:16.081Z,30.15
2023-08-15T07:52:44.766Z,29.94
2023-08-15T07:55:13.672Z,29.80
2023-08-15T07:57:42.043Z,29.80
2023-08-15T08:00:14.105Z,30.03
2023-08-15T08:02:43.016Z,30.17
2023-08-15T08:05:12.879Z,30.30
2023-08-15T08:07:43.559Z,30.24
2023-08-15T08:10:12.177Z,30.60
2023-08-15T08:12:40.541Z,30.54
2023-08-15T08:15:09.554Z,30.45
2023-08-15T08:17:39.293Z,30.40
2023-08-15T08:20:13.492Z,30.76
2023-08-15T08:22:43.086Z,30.22
2023-08-15T08:25:17.514Z,30.42
2023-08-15T08:27:46.301Z,30.60
2023-08-15T08:30:15.665Z,30.35
2023-08-15T08:32:45.471Z,30.05
2023-08-15T08:35:16.568Z,30.19
2023-08-15T08:37:45.648Z,30.26
2023-08-15T08:40:15.019Z,30.25
2023-08-15T08:42:43.683Z,30.13
2023-08-15T08:45:12.732Z,30.29
2023-08-15T08:47:41.877Z,30.48
2023-08-15T08:50:12.806Z,30.48
2023-08-15T08:52:43.264Z,30.76
2023-08-15T08:55:12.797Z,30.77
2023-08-15T08:57:44.581Z,30.80
2023-08-15T09:00:15.531Z,30.99
2023-08-15T09:02:43.785Z,30.86
2023-08-15T09:05:13.395Z,30.97
2023-08-15T09:07:43.475Z,30.62
2023-08-15T09:10:12.817Z,30.80
2023-08-15T09:12:42.142Z,30.95
2023-08-15T09:15:11.900Z,30.90
2023-08-15T09:17:40.344Z,30.83
2023-08-15T09:20:15.687Z,31.03
2023-08-15T09:22:47.007Z,31.02
2023-08-15T09:25:17.140Z,31.17
2023-08-15T09:27:45.973Z,31.08
2023-08-15T09:30:16.123Z,30.99
2023-08-15T09:32:46.813Z,31.26
2023-08-15T09:35:18.480Z,31.18
2023-08-15T09:37:48.494Z,31.21
2023-08-15T09:40:19.150Z,31.15
2023-08-15T09:42:47.950Z,31.27
2023-08-15T09:45:16.991Z,31.50
2023-08-15T09:47:46.966Z,31.76
2023-08-15T09:50:17.852Z,31.87
2023-08-15T09:52:52.001Z,31.78
2023-08-15T09:55:21.303Z,31.58
2023-08-15T09:57:50.874Z,31.66
2023-08-15T10:00:19.606Z,31.72
2023-08-15T10:02:50.903Z,31.69
2023-08-15T10:05:23.955Z,31.75
2023-08-15T10:07:52.605Z,31.72
2023-08-15T10:10:22.019Z,31.90
2023-08-15T10:12:52.376Z,31.81
2023-08-15T10:15:22.603Z,31.74
2023-08-15T10:17:52.145Z,32.10
2023-08-15T10:20:23.040Z,32.26
2023-08-15T10:22:56.733Z,32.36
2023-08-15T10:25:38.388Z,32.59
2023-08-15T10:28:07.673Z,32.82
2023-08-15T10:30:37.778Z,32.78
2023-08-15T10:33:17.088Z,32.75
2023-08-15T10:35:52.098Z,32.92
2023-08-15T10:38:22.769Z,33.14
2023-08-15T10:40:53.419Z,33.30
2023-08-15T10:43:27.191Z,33.23
2023-08-15T10:45:58.809Z,33.14
2023-08-15T10:48:59.983Z,33.22
2023-08-15T10:51:33.246Z,33.14
2023-08-15T10:54:03.277Z,33.13
2023-08-15T10:56:32.745Z,33.00
2023-08-15T10:59:06.725Z,32.85
2023-08-15T11:01:35.126Z,32.98
2023-08-15T11:04:04.451Z,32.97
2023-08-15T11:06:42.826Z,33.15
2023-08-15T11:09:12.323Z,33.17
2023-08-15T11:11:40.820Z,33.47
2023-08-15T11:14:17.693Z,33.65
2023-08-15T11:16:47.139Z,33.69
2023-08-15T11:19:17.120Z,33.78
2023-08-15T11:21:47.001Z,33.49
2023-08-15T11:24:15.105Z,33.30
2023-08-15T11:26:43.347Z,33.24
2023-08-15T11:29:12.413Z,33.24
2023-08-15T11:31:40.957Z,33.40
2023-08-15T11:34:12.439Z,33.29
2023-08-15T11:36:41.185Z,33.39
2023-08-15T11:39:15.025Z,33.45
2023-08-15T11:41:44.094Z,33.36
2023-08-15T11:44:12.734Z,33.10
2023-08-15T11:49:18.131Z,33.26
2023-08-15T11:51:46.431Z,33.30
2023-08-15T11:54:15.949Z,33.28
2023-08-15T11:56:51.140Z,33.23
2023-08-15T11:59:20.132Z,33.26
2023-08-15T12:01:49.257Z,33.49
2023-08-15T12:04:18.833Z,33.51
2023-08-15T12:06:47.347Z,33.54
2023-08-15T12:09:17.225Z,33.51
2023-08-15T12:11:45.375Z,33.20
2023-08-15T12:14:20.699Z,33.10
2023-08-15T12:16:49.072Z,33.18
2023-08-15T12:19:21.047Z,33.43
2023-08-15T12:21:51.654Z,33.55
2023-08-15T12:24:21.282Z,33.52
2023-08-15T12:26:49.393Z,33.63
2023-08-15T12:29:18.245Z,33.67
2023-08-15T12:31:47.049Z,33.75
2023-08-15T12:34:15.520Z,33.65
2023-08-15T12:36:43.662Z,33.85
2023-08-15T12:39:11.893Z,33.65
2023-08-15T12:41:41.551Z,33.73
2023-08-15T12:44:09.864Z,33.71
2023-08-15T12:46:38.005Z,33.66
2023-08-15T12:49:06.420Z,33.56
2023-08-15T12:51:34.672Z,33.55
2023-08-15T12:54:02.847Z,33.61
2023-08-15T12:56:31.024Z,33.22
2023-08-15T12:59:00.686Z,33.12
2023-08-15T13:01:29.213Z,33.05
2023-08-15T13:03:58.048Z,33.02
2023-08-15T13:06:26.127Z,33.24
2023-08-15T13:08:54.246Z,33.17
2023-08-15T13:11:22.563Z,33.43
2023-08-15T13:13:50.785Z,33.71
2023-08-15T13:16:20.454Z,33.97
2023-08-15T13:18:48.624Z,34.52
2023-08-15T13:21:16.862Z,34.47
2023-08-15T13:23:46.593Z,34.48
2023-08-15T13:26:15.103Z,34.18
2023-08-15T13:28:43.301Z,34.32
2023-08-15T13:31:11.489Z,34.32
2023-08-15T13:33:41.248Z,34.05
2023-08-15T13:36:09.933Z,34.17
2023-08-15T13:38:38.795Z,33.99
2023-08-15T13:41:07.490Z,34.06
2023-08-15T13:43:35.613Z,33.98
2023-08-15T13:46:04.671Z,33.81
2023-08-15T13:48:32.850Z,33.88
2023-08-15T13:51:04.436Z,33.76
2023-08-15T13:53:32.620Z,33.73
2023-08-15T13:56:00.813Z,33.63
2023-08-15T13:58:30.207Z,33.31
2023-08-15T14:00:59.232Z,33.48
2023-08-15T14:03:31.048Z,33.47
2023-08-15T14:06:00.285Z,33.74
2023-08-15T14:08:30.571Z,33.99
2023-08-15T14:10:59.614Z,33.96
2023-08-15T14:13:27.804Z,34.07
2023-08-15T14:15:55.976Z,33.85
2023-08-15T14:18:24.593Z,33.95
2023-08-15T14:20:52.810Z,34.14
2023-08-15T14:23:21.348Z,33.90
2023-08-15T14:25:51.317Z,33.81
2023-08-15T14:28:19.443Z,33.81
2023-08-15T14:30:48.072Z,33.51
2023-08-15T14:33:17.676Z,33.52
2023-08-15T14:35:46.180Z,33.13
2023-08-15T14:38:15.153Z,33.34
2023-08-15T14:40:43.725Z,33.34
2023-08-15T14:43:13.412Z,33.57
2023-08-15T14:45:41.579Z,33.43
2023-08-15T14:48:09.748Z,33.56
2023-08-15T14:50:37.933Z,33.51
2023-08-15T14:53:06.550Z,33.40
2023-08-15T14:55:35.010Z,33.28
2023-08-15T14:58:03.799Z,33.13
2023-08-15T15:00:33.416Z,33.01
2023-08-15T15:03:01.622Z,32.98
2023-08-15T15:05:29.846Z,32.99
2023-08-15T15:07:57.848Z,33.06
2023-08-15T15:10:26.004Z,32.93
2023-08-15T15:12:54.203Z,32.96
2023-08-15T15:15:31.531Z,33.03
2023-08-15T15:18:10.745Z,33.09
2023-08-15T15:20:38.926Z,33.17
2023-08-15T15:23:07.028Z,33.22
2023-08-15T15:25:35.367Z,33.11
2023-08-15T15:28:03.526Z,33.04
2023-08-15T15:30:31.621Z,32.85
2023-08-15T15:32:59.764Z,32.82
2023-08-15T15:35:29.450Z,32.75
2023-08-15T15:37:57.555Z,32.66
2023-08-15T15:40:25.698Z,32.56
2023-08-15T15:42:53.792Z,32.61
2023-08-15T15:45:21.935Z,32.52
2023-08-15T15:47:50.180Z,32.45
2023-08-15T15:50:20.826Z,32.26
2023-08-15T15:52:50.818Z,32.19
2023-08-15T15:55:22.535Z,32.25
2023-08-15T15:57:51.845Z,32.28
2023-08-15T16:00:21.177Z,32.19
2023-08-15T16:02:49.785Z,32.21
2023-08-15T16:05:17.957Z,32.13
2023-08-15T16:07:46.074Z,32.09
2023-08-15T16:10:15.661Z,32.01
2023-08-15T16:12:43.787Z,31.97
2023-08-15T16:15:12.489Z,31.87
2023-08-15T16:17:43.983Z,31.82
2023-08-15T16:20:13.608Z,31.70
2023-08-15T16:22:41.782Z,31.71
2023-08-15T16:25:10.333Z,31.66
2023-08-15T16:27:39.986Z,31.55
2023-08-15T16:30:17.317Z,31.53
2023-08-15T16:32:49.104Z,31.40
2023-08-15T16:35:17.611Z,31.36
2023-08-15T16:37:47.081Z,31.33
2023-08-15T16:40:15.549Z,31.23
2023-08-15T16:42:45.160Z,31.17
2023-08-15T16:45:14.205Z,31.03
2023-08-15T16:47:45.510Z,30.86
2023-08-15T16:50:14.424Z,30.73
2023-08-15T16:52:42.971Z,30.63
2023-08-15T16:55:11.695Z,30.62
2023-08-15T16:57:40.610Z,30.51
2023-08-15T17:00:13.084Z,30.45
2023-08-15T17:02:41.975Z,30.40
2023-08-15T17:05:12.152Z,30.38
2023-08-15T17:07:40.792Z,30.37
2023-08-15T17:10:10.679Z,30.29
2023-08-15T17:12:40.827Z,30.25
2023-08-15T17:15:12.952Z,30.17
2023-08-15T17:17:41.326Z,30.11
2023-08-15T17:20:11.022Z,29.98
2023-08-15T17:22:40.039Z,29.83
2023-08-15T17:25:09.504Z,29.65
2023-08-15T17:27:37.789Z,29.50
2023-08-15T17:30:06.918Z,29.29
2023-08-15T17:32:39.038Z,29.02
2023-08-15T17:35:09.350Z,28.78
2023-08-15T17:37:37.976Z,28.54
2023-08-15T17:40:07.477Z,28.39
2023-08-15T17:42:36.411Z,28.19
2023-08-15T17:45:06.031Z,27.92
2023-08-15T17:47:35.331Z,27.65
2023-08-15T17:50:07.372Z,27.23
2023-08-15T17:52:37.213Z,27.00
2023-08-15T17:55:06.513Z,26.97
2023-08-15T17:57:35.497Z,27.01
2023-08-15T18:00:05.148Z,27.02
2023-08-15T18:02:34.698Z,27.05
2023-08-15T18:05:07.003Z,27.05
2023-08-15T18:07:35.171Z,27.07
2023-08-15T18:10:05.446Z,27.03
2023-08-15T18:12:35.312Z,27.02
2023-08-15T18:15:03.956Z,26.98
2023-08-15T18:17:32.987Z,26.91
2023-08-15T18:20:01.790Z,26.87
2023-08-15T18:22:32.536Z,26.82
2023-08-15T18:25:01.807Z,26.74
2023-08-15T18:27:31.265Z,26.70
2023-08-15T18:30:02.476Z,26.65
2023-08-15T18:32:31.419Z,26.57
2023-08-15T18:35:00.500Z,26.46
2023-08-15T18:37:30.071Z,26.36
2023-08-15T18:40:00.461Z,26.29
2023-08-15T18:42:29.501Z,26.19
2023-08-15T18:44:58.849Z,25.99
2023-08-15T18:47:27.618Z,25.76
2023-08-15T18:49:56.572Z,25.60
2023-08-15T18:52:28.252Z,25.39
2023-08-15T18:54:56.873Z,25.28
2023-08-15T18:57:27.398Z,25.25
2023-08-15T19:00:00.963Z,25.19
2023-08-15T19:02:29.289Z,25.08
2023-08-15T19:04:59.951Z,24.91
2023-08-15T19:07:29.776Z,24.78
2023-08-15T19:09:58.061Z,24.70
2023-08-15T19:12:29.090Z,24.66
2023-08-15T19:14:59.060Z,24.62
2023-08-15T19:17:28.969Z,24.59
2023-08-15T19:19:59.377Z,24.55
2023-08-15T19:22:28.908Z,24.53
2023-08-15T19:24:58.305Z,24.49
2023-08-15T19:27:30.764Z,24.52
2023-08-15T19:30:01.126Z,24.48
2023-08-15T19:32:30.213Z,24.41
2023-08-15T19:34:58.868Z,24.38
2023-08-15T19:37:36.913Z,24.32
2023-08-15T19:40:10.091Z,24.27
2023-08-15T19:42:44.792Z,24.15
2023-08-15T19:45:16.746Z,24.08
2023-08-15T19:47:45.996Z,23.95
2023-08-15T19:50:14.429Z,23.78
2023-08-15T19:52:43.752Z,23.62
2023-08-15T19:55:13.816Z,23.58
2023-08-15T19:57:44.257Z,23.50
2023-08-15T20:00:14.996Z,23.45
2023-08-15T20:02:44.115Z,23.43
2023-08-15T20:05:12.389Z,23.41
2023-08-15T20:07:41.893Z,23.41
2023-08-15T20:10:12.578Z,23.50
2023-08-15T20:12:43.314Z,23.36
2023-08-15T20:15:13.596Z,23.38
2023-08-15T20:17:43.374Z,23.36
2023-08-15T20:20:13.593Z,23.28
2023-08-15T20:22:42.595Z,23.16
2023-08-15T20:25:11.742Z,23.06
2023-08-15T20:27:40.637Z,23.03
2023-08-15T20:30:11.485Z,23.01
2023-08-15T20:32:40.840Z,23.07
2023-08-15T20:35:12.241Z,23.09
2023-08-15T20:37:41.134Z,23.16
2023-08-15T20:40:12.233Z,23.23
2023-08-15T20:42:41.100Z,23.25
2023-08-15T20:45:12.332Z,23.28
2023-08-15T20:47:41.234Z,23.36
2023-08-15T20:50:10.551Z,23.35
2023-08-15T20:52:38.940Z,23.35
2023-08-15T20:55:09.047Z,23.35
2023-08-15T20:57:37.230Z,23.32
2023-08-15T21:00:06.432Z,23.29
2023-08-15T21:02:35.939Z,23.28
2023-08-15T21:05:04.749Z,23.31
2023-08-15T21:07:32.782Z,23.28
2023-08-15T21:10:01.955Z,23.26
2023-08-15T21:12:30.451Z,23.27
2023-08-15T21:14:58.574Z,23.24
2023-08-15T21:17:26.908Z,23.27
2023-08-15T21:19:56.917Z,23.28
2023-08-15T21:22:25.131Z,23.29
2023-08-15T21:24:53.264Z,23.30
2023-08-15T21:27:21.439Z,23.29
2023-08-15T21:29:49.881Z,23.26
2023-08-15T21:32:18.113Z,23.21
2023-08-15T21:34:46.414Z,23.18
2023-08-15T21:37:16.140Z,23.13
2023-08-15T21:39:44.265Z,23.07
2023-08-15T21:42:12.377Z,23.02
2023-08-15T21:44:40.521Z,22.96
2023-08-15T21:47:09.297Z,22.99
2023-08-15T21:49:37.364Z,22.92
2023-08-15T21:52:06.007Z,22.85
2023-08-15T21:54:35.496Z,22.77
2023-08-15T21:57:06.476Z,22.70
2023-08-15T21:59:40.160Z,22.66
2023-08-15T22:02:08.337Z,22.63
2023-08-15T22:04:36.437Z,22.60
2023-08-15T22:07:04.748Z,22.57
2023-08-15T22:09:32.927Z,22.54
2023-08-15T22:12:02.366Z,22.51
2023-08-15T22:14:30.452Z,22.48
2023-08-15T22:16:58.639Z,22.45
2023-08-15T22:19:26.763Z,22.42
2023-08-15T22:21:54.982Z,22.37
2023-08-15T22:24:23.106Z,22.36
2023-08-15T22:26:51.311Z,22.35
2023-08-15T22:29:20.801Z,22.35
2023-08-15T22:31:48.991Z,22.36
2023-08-15T22:34:17.476Z,22.33
2023-08-15T22:36:46.240Z,22.39
2023-08-15T22:39:14.359Z,22.45
2023-08-15T22:41:42.409Z,22.48
2023-08-15T22:44:11.237Z,22.49
2023-08-15T22:46:40.729Z,22.47
2023-08-15T22:49:08.882Z,22.48
2023-08-15T22:51:37.017Z,22.48
2023-08-15T22:54:05.585Z,22.45
2023-08-15T22:56:33.665Z,22.43
2023-08-15T22:59:01.772Z,22.46
2023-08-15T23:01:29.949Z,22.41
2023-08-15T23:04:00.688Z,22.44
2023-08-15T23:06:29.008Z,22.42
2023-08-15T23:08:57.072Z,22.39
2023-08-15T23:11:25.116Z,22.34
2023-08-15T23:13:53.161Z,22.28
2023-08-15T23:16:21.248Z,22.21
2023-08-15T23:18:49.890Z,22.18
2023-08-15T23:21:19.370Z,22.10
2023-08-15T23:23:47.396Z,22.06
2023-08-15T23:26:15.532Z,21.98
2023-08-15T23:28:43.660Z,21.93
2023-08-15T23:31:12.520Z,21.85
2023-08-15T23:33:41.082Z,21.83
2023-08-15T23:36:09.228Z,21.86
2023-08-15T23:38:38.681Z,21.78
2023-08-15T23:41:06.769Z,21.70
2023-08-15T23:43:34.884Z,21.58
2023-08-15T23:46:03.110Z,21.55
2023-08-15T23:48:31.133Z,21.52
2023-08-15T23:50:59.320Z,21.51
2023-08-15T23:53:27.649Z,21.48
2023-08-15T23:55:57.182Z,21.45
2023-08-15T23:58:25.271Z,21.38
